createdAt,value
2022-12-23T00:01:24.732Z,8.90
2022-12-23T00:03:51.937Z,8.90
2022-12-23T00:06:19.823Z,8.90
2022-12-23T00:08:46.988Z,9.00
2022-12-23T00:11:14.981Z,9.10
2022-12-23T00:14:00.489Z,8.90
2022-12-23T00:16:27.419Z,8.90
2022-12-23T00:18:54.503Z,8.90
2022-12-23T00:21:22.020Z,8.80
2022-12-23T00:23:49.900Z,8.80
2022-12-23T00:26:17.992Z,8.90
2022-12-23T00:28:44.901Z,8.90
2022-12-23T00:31:12.301Z,8.90
2022-12-23T00:33:40.979Z,8.90
2022-12-23T00:36:34.283Z,8.90
2022-12-23T00:39:19.770Z,8.80
2022-12-23T00:42:05.582Z,8.70
2022-12-23T00:44:32.556Z,8.90
2022-12-23T00:46:59.398Z,8.90
2022-12-23T00:49:44.504Z,8.90
2022-12-23T00:52:13.122Z,8.90
2022-12-23T00:54:40.373Z,8.80
2022-12-23T00:57:07.225Z,8.80
2022-12-23T00:59:34.516Z,8.90
2022-12-23T01:02:19.952Z,8.90
2022-12-23T01:05:05.349Z,8.80
2022-12-23T01:07:32.308Z,8.80
2022-12-23T01:09:59.217Z,8.80
2022-12-23T01:12:26.040Z,8.80
2022-12-23T01:14:52.963Z,8.80
2022-12-23T01:17:20.034Z,8.90
2022-12-23T01:19:46.897Z,8.90
2022-12-23T01:22:13.779Z,9.00
2022-12-23T01:24:40.684Z,9.10
2022-12-23T01:27:07.503Z,9.10
2022-12-23T01:29:34.365Z,9.20
2022-12-23T01:32:01.384Z,9.20
2022-12-23T01:34:34.323Z,9.30
2022-12-23T01:37:03.203Z,9.30
2022-12-23T01:39:30.098Z,9.40
2022-12-23T01:42:15.463Z,9.50
2022-12-23T01:44:56.311Z,9.50
2022-12-23T01:47:29.482Z,9.60
2022-12-23T01:50:11.497Z,9.70
2022-12-23T01:52:44.663Z,9.80
2022-12-23T01:55:12.683Z,9.90
2022-12-23T01:57:40.867Z,9.90
2022-12-23T02:00:28.995Z,10.00
2022-12-23T02:03:14.574Z,10.10
2022-12-23T02:05:43.026Z,10.10
2022-12-23T02:08:28.255Z,10.20
2022-12-23T02:11:24.140Z,10.20
2022-12-23T02:14:31.288Z,10.30
2022-12-23T02:17:10.412Z,10.40
2022-12-23T02:19:48.267Z,10.40
2022-12-23T02:22:15.147Z,10.40
2022-12-23T02:25:00.952Z,10.50
2022-12-23T02:27:32.702Z,10.50
2022-12-23T02:30:17.991Z,10.50
2022-12-23T02:32:58.286Z,10.50
2022-12-23T02:35:25.208Z,10.50
2022-12-23T02:37:54.780Z,10.60
2022-12-23T02:40:29.408Z,10.60
2022-12-23T02:43:02.116Z,10.60
2022-12-23T02:45:31.743Z,10.60
2022-12-23T02:48:13.900Z,10.60
2022-12-23T02:50:41.915Z,10.70
2022-12-23T02:53:12.754Z,10.70
2022-12-23T02:55:41.963Z,10.70
2022-12-23T02:58:11.113Z,10.70
2022-12-23T03:00:38.620Z,10.70
2022-12-23T03:03:05.662Z,10.70
2022-12-23T03:05:44.464Z,10.70
2022-12-23T03:08:13.796Z,10.80
2022-12-23T03:10:43.313Z,10.80
2022-12-23T03:13:28.629Z,10.80
2022-12-23T03:16:20.793Z,10.80
2022-12-23T03:18:53.929Z,10.80
2022-12-23T03:21:24.526Z,10.80
2022-12-23T03:23:57.184Z,10.80
2022-12-23T03:26:29.746Z,10.80
2022-12-23T03:28:58.450Z,10.80
2022-12-23T03:31:27.515Z,10.90
2022-12-23T03:34:11.346Z,10.90
2022-12-23T03:36:40.044Z,10.90
2022-12-23T03:39:08.504Z,11.00
2022-12-23T03:41:38.545Z,10.90
2022-12-23T03:44:31.741Z,11.00
2022-12-23T03:46:58.606Z,10.90
2022-12-23T03:49:31.170Z,10.80
2022-12-23T03:52:02.927Z,10.90
2022-12-23T03:54:36.910Z,10.90
2022-12-23T03:57:05.524Z,10.90
2022-12-23T03:59:34.362Z,10.90
2022-12-23T04:02:01.375Z,10.80
2022-12-23T04:04:34.337Z,10.90
2022-12-23T04:07:06.385Z,10.90
2022-12-23T04:09:33.453Z,10.80
2022-12-23T04:12:00.535Z,10.80
2022-12-23T04:14:27.380Z,10.70
2022-12-23T04:16:55.202Z,10.80
2022-12-23T04:19:22.204Z,10.70
2022-12-23T04:21:49.015Z,10.80
2022-12-23T04:24:16.178Z,10.70
2022-12-23T04:26:42.976Z,10.80
2022-12-23T04:29:09.865Z,10.80
2022-12-23T04:31:36.787Z,10.70
2022-12-23T04:34:03.698Z,10.70
2022-12-23T04:36:30.772Z,10.80
2022-12-23T04:38:57.591Z,10.80
2022-12-23T04:41:24.442Z,10.70
2022-12-23T04:43:53.375Z,10.80
2022-12-23T04:46:20.564Z,10.80
2022-12-23T04:48:47.481Z,10.60
2022-12-23T04:51:14.379Z,10.60
2022-12-23T04:53:41.290Z,10.60
2022-12-23T04:56:08.259Z,10.80
2022-12-23T04:58:35.257Z,10.70
2022-12-23T05:01:05.440Z,10.70
2022-12-23T05:03:32.666Z,10.70
2022-12-23T05:05:59.843Z,10.60
2022-12-23T05:08:26.909Z,10.70
2022-12-23T05:10:53.958Z,10.60
2022-12-23T05:13:21.345Z,10.60
2022-12-23T05:15:51.887Z,10.60
2022-12-23T05:18:19.269Z,10.60
2022-12-23T05:20:46.196Z,10.60
2022-12-23T05:23:13.151Z,10.70
2022-12-23T05:25:40.093Z,10.80
2022-12-23T05:28:09.557Z,10.70
2022-12-23T05:30:36.440Z,10.60
2022-12-23T05:33:03.467Z,10.70
2022-12-23T05:35:30.421Z,10.60
2022-12-23T05:37:58.443Z,10.60
2022-12-23T05:40:29.370Z,10.80
2022-12-23T05:42:59.369Z,10.70
2022-12-23T05:45:26.262Z,10.80
2022-12-23T05:47:53.137Z,10.70
2022-12-23T05:50:19.957Z,10.70
2022-12-23T05:52:48.822Z,10.80
2022-12-23T05:55:15.659Z,10.80
2022-12-23T05:57:42.563Z,10.70
2022-12-23T06:00:09.747Z,10.70
2022-12-23T06:02:39.695Z,10.80
2022-12-23T06:05:06.877Z,10.90
2022-12-23T06:07:33.858Z,10.90
2022-12-23T06:10:00.781Z,10.80
2022-12-23T06:12:27.613Z,10.80
2022-12-23T06:14:54.509Z,10.80
2022-12-23T06:17:21.391Z,10.80
2022-12-23T06:19:48.263Z,10.80
2022-12-23T06:22:15.555Z,10.70
2022-12-23T06:24:42.367Z,10.70
2022-12-23T06:27:09.364Z,10.70
2022-12-23T06:29:36.465Z,10.70
2022-12-23T06:32:03.393Z,10.80
2022-12-23T06:34:31.453Z,10.80
2022-12-23T06:36:58.277Z,10.90
2022-12-23T06:39:25.129Z,10.70
2022-12-23T06:41:51.993Z,10.60
2022-12-23T06:44:18.965Z,10.40
2022-12-23T06:46:45.795Z,10.40
2022-12-23T06:49:13.747Z,10.20
2022-12-23T06:51:40.924Z,10.50
2022-12-23T06:54:09.875Z,10.30
2022-12-23T06:56:36.798Z,10.40
2022-12-23T06:59:03.744Z,10.60
2022-12-23T07:01:30.728Z,10.50
2022-12-23T07:03:57.665Z,10.50
2022-12-23T07:06:24.454Z,10.50
2022-12-23T07:08:51.325Z,10.50
2022-12-23T07:11:18.625Z,10.50
2022-12-23T07:13:46.025Z,10.40
2022-12-23T07:16:12.930Z,10.40
2022-12-23T07:18:39.816Z,10.30
2022-12-23T07:21:13.403Z,10.30
2022-12-23T07:23:44.889Z,10.30
2022-12-23T07:26:11.883Z,10.30
2022-12-23T07:28:38.739Z,10.30
2022-12-23T07:31:06.599Z,10.50
2022-12-23T07:33:33.545Z,10.40
2022-12-23T07:36:00.411Z,10.50
2022-12-23T07:38:27.270Z,10.40
2022-12-23T07:40:54.104Z,10.50
2022-12-23T07:43:20.955Z,10.60
2022-12-23T07:45:50.210Z,10.60
2022-12-23T07:48:20.969Z,10.70
2022-12-23T07:50:47.808Z,10.60
2022-12-23T07:53:14.637Z,10.70
2022-12-23T07:55:41.559Z,10.70
2022-12-23T07:58:08.527Z,10.80
2022-12-23T08:00:35.465Z,10.80
2022-12-23T08:03:02.452Z,11.10
2022-12-23T08:05:29.569Z,11.10
2022-12-23T08:07:56.485Z,11.20
2022-12-23T08:10:23.268Z,11.10
2022-12-23T08:12:50.187Z,11.20
2022-12-23T08:15:17.043Z,11.20
2022-12-23T08:17:43.992Z,11.30
2022-12-23T08:20:11.033Z,11.40
2022-12-23T08:22:37.904Z,11.40
2022-12-23T08:25:04.965Z,11.50
2022-12-23T08:27:31.947Z,11.60
2022-12-23T08:29:58.765Z,11.70
2022-12-23T08:32:27.095Z,11.80
2022-12-23T08:34:55.173Z,11.70
2022-12-23T08:37:22.001Z,11.80
2022-12-23T08:39:48.811Z,11.80
2022-12-23T08:42:15.709Z,11.80
2022-12-23T08:44:42.564Z,11.80
2022-12-23T08:47:09.403Z,11.70
2022-12-23T08:49:36.512Z,11.80
2022-12-23T08:52:03.744Z,11.90
2022-12-23T08:54:30.809Z,12.10
2022-12-23T08:56:57.751Z,12.10
2022-12-23T08:59:24.543Z,12.10
2022-12-23T09:01:51.477Z,12.10
2022-12-23T09:04:18.728Z,12.10
2022-12-23T09:06:45.715Z,12.10
2022-12-23T09:09:13.692Z,12.10
2022-12-23T09:11:40.524Z,12.20
2022-12-23T09:14:08.852Z,12.20
2022-12-23T09:16:35.958Z,12.20
2022-12-23T09:19:03.272Z,12.10
2022-12-23T09:21:30.075Z,12.20
2022-12-23T09:23:56.878Z,12.20
2022-12-23T09:26:28.076Z,12.20
2022-12-23T09:28:55.471Z,12.30
2022-12-23T09:31:22.645Z,12.30
2022-12-23T09:33:50.669Z,12.30
2022-12-23T09:36:17.741Z,12.40
2022-12-23T09:38:44.588Z,12.40
2022-12-23T09:41:14.158Z,12.50
2022-12-23T09:43:52.014Z,12.60
2022-12-23T09:46:23.739Z,12.70
2022-12-23T09:49:09.205Z,12.60
2022-12-23T09:51:36.106Z,12.60
2022-12-23T09:54:16.661Z,12.60
2022-12-23T09:56:47.163Z,12.60
2022-12-23T09:59:23.128Z,12.60
2022-12-23T10:01:57.355Z,12.50
2022-12-23T10:04:45.101Z,12.60
2022-12-23T10:07:14.695Z,12.50
2022-12-23T10:09:43.341Z,12.50
2022-12-23T10:12:20.961Z,12.50
2022-12-23T10:14:52.114Z,12.50
2022-12-23T10:17:45.349Z,12.40
2022-12-23T10:20:18.685Z,12.30
2022-12-23T10:22:46.487Z,12.30
2022-12-23T10:25:36.518Z,12.20
2022-12-23T10:28:03.495Z,12.10
2022-12-23T10:33:23.457Z,11.90
2022-12-23T10:36:29.032Z,12.00
2022-12-23T10:39:04.665Z,12.00
2022-12-23T10:41:39.602Z,12.10
2022-12-23T10:44:25.125Z,12.10
2022-12-23T10:46:51.987Z,12.20
2022-12-23T10:49:33.705Z,12.10
2022-12-23T10:52:03.691Z,12.10
2022-12-23T10:54:32.480Z,12.00
2022-12-23T10:56:59.600Z,11.90
2022-12-23T10:59:28.205Z,11.90
2022-12-23T11:01:56.308Z,11.90
2022-12-23T11:04:30.348Z,11.90
2022-12-23T11:07:26.443Z,11.80
2022-12-23T11:09:45.963Z,11.70
2022-12-23T11:12:13.203Z,11.70
2022-12-23T11:14:41.759Z,11.70
2022-12-23T11:17:19.558Z,11.70
2022-12-23T11:19:46.487Z,11.70
2022-12-23T11:22:23.902Z,11.80
2022-12-23T11:24:51.053Z,11.70
2022-12-23T11:27:17.986Z,11.70
2022-12-23T11:29:46.496Z,11.70
2022-12-23T11:32:22.338Z,11.70
2022-12-23T11:34:49.782Z,11.60
2022-12-23T11:37:34.835Z,11.50
2022-12-23T11:40:01.871Z,11.60
2022-12-23T11:42:30.064Z,11.60
2022-12-23T11:44:58.859Z,11.60
2022-12-23T11:47:32.976Z,11.50
2022-12-23T11:50:01.213Z,11.50
2022-12-23T11:52:30.085Z,11.60
2022-12-23T11:55:01.349Z,11.60
2022-12-23T11:57:33.555Z,11.50
2022-12-23T12:00:01.775Z,11.60
2022-12-23T12:02:28.781Z,11.50
2022-12-23T12:04:57.611Z,11.60
2022-12-23T12:07:25.537Z,11.60
2022-12-23T12:09:52.835Z,11.70
2022-12-23T12:12:21.287Z,11.60
2022-12-23T12:14:52.485Z,11.70
2022-12-23T12:17:22.452Z,11.60
2022-12-23T12:20:07.668Z,11.60
2022-12-23T12:22:34.638Z,11.70
2022-12-23T12:25:09.227Z,11.70
2022-12-23T12:27:38.307Z,11.60
2022-12-23T12:30:08.900Z,11.50
2022-12-23T12:32:43.278Z,11.50
2022-12-23T12:35:15.016Z,11.50
2022-12-23T12:37:44.846Z,11.60
2022-12-23T12:40:14.798Z,11.60
2022-12-23T12:42:43.171Z,11.60
2022-12-23T12:45:23.825Z,11.60
2022-12-23T12:47:55.271Z,11.50
2022-12-23T12:50:27.954Z,11.40
2022-12-23T12:52:56.702Z,11.30
2022-12-23T12:55:26.212Z,11.50
2022-12-23T12:57:53.182Z,11.40
2022-12-23T13:00:21.225Z,11.40
2022-12-23T13:03:06.912Z,11.50
2022-12-23T13:05:51.706Z,11.40
2022-12-23T13:08:58.857Z,11.30
2022-12-23T13:11:45.260Z,11.30
2022-12-23T13:14:12.389Z,11.40
2022-12-23T13:16:44.561Z,11.40
2022-12-23T13:19:23.373Z,11.40
2022-12-23T13:22:03.213Z,11.30
2022-12-23T13:24:32.956Z,11.30
2022-12-23T13:27:07.551Z,11.40
2022-12-23T13:29:34.384Z,11.40
2022-12-23T13:32:01.187Z,11.50
2022-12-23T13:34:30.924Z,11.50
2022-12-23T13:37:00.662Z,11.50
2022-12-23T13:39:41.320Z,11.40
2022-12-23T13:42:10.473Z,11.40
2022-12-23T13:44:37.464Z,11.50
2022-12-23T13:47:07.156Z,11.40
2022-12-23T13:49:36.778Z,11.50
2022-12-23T13:52:07.175Z,11.50
2022-12-23T13:54:43.330Z,11.50
2022-12-23T13:57:44.858Z,11.50
2022-12-23T14:00:17.627Z,11.40
2022-12-23T14:02:50.850Z,11.60
2022-12-23T14:05:28.822Z,11.40
2022-12-23T14:07:56.259Z,11.40
2022-12-23T14:10:24.245Z,11.50
2022-12-23T14:12:52.257Z,11.40
2022-12-23T14:15:31.683Z,11.50
2022-12-23T14:18:04.908Z,11.50
2022-12-23T14:20:38.099Z,11.40
2022-12-23T14:23:10.507Z,11.50
2022-12-23T14:25:52.476Z,11.50
2022-12-23T14:28:19.273Z,11.50
2022-12-23T14:30:46.198Z,11.50
2022-12-23T14:33:23.271Z,11.50
2022-12-23T14:35:51.619Z,11.50
2022-12-23T14:38:29.900Z,11.60
2022-12-23T14:40:59.502Z,11.60
2022-12-23T14:43:46.633Z,11.50
2022-12-23T14:46:32.253Z,11.50
2022-12-23T14:49:22.539Z,11.50
2022-12-23T14:51:45.987Z,11.60
2022-12-23T14:54:15.129Z,11.60
2022-12-23T14:57:00.584Z,11.60
2022-12-23T14:59:38.944Z,11.60
2022-12-23T15:02:21.004Z,11.60
2022-12-23T15:04:53.085Z,11.60
2022-12-23T15:07:36.487Z,11.60
2022-12-23T15:10:08.825Z,11.60
2022-12-23T15:12:40.985Z,11.70
2022-12-23T15:15:16.241Z,11.80
2022-12-23T15:17:43.395Z,11.80
2022-12-23T15:20:10.328Z,11.90
2022-12-23T15:22:38.840Z,11.90
2022-12-23T15:25:19.174Z,11.90
2022-12-23T15:27:46.432Z,11.90
2022-12-23T15:30:14.376Z,12.00
2022-12-23T15:32:51.261Z,12.00
2022-12-23T15:35:24.505Z,12.10
2022-12-23T15:37:52.404Z,12.10
2022-12-23T15:40:32.651Z,12.20
2022-12-23T15:43:00.057Z,12.20
2022-12-23T15:45:33.717Z,12.30
2022-12-23T15:48:01.439Z,12.30
2022-12-23T15:50:29.195Z,12.20
2022-12-23T15:53:04.669Z,12.40
2022-12-23T15:55:34.330Z,12.40
2022-12-23T15:58:02.889Z,12.40
2022-12-23T16:00:39.920Z,12.40
2022-12-23T16:03:21.808Z,12.50
2022-12-23T16:05:49.141Z,12.50
2022-12-23T16:08:16.396Z,12.50
2022-12-23T16:11:20.097Z,12.40
2022-12-23T16:14:22.681Z,12.50
2022-12-23T16:16:51.975Z,12.50
2022-12-23T16:19:37.536Z,12.50
2022-12-23T16:22:15.493Z,12.50
2022-12-23T16:24:48.361Z,12.50
2022-12-23T16:27:24.155Z,12.60
2022-12-23T16:29:51.196Z,12.50
2022-12-23T16:32:19.885Z,12.50
2022-12-23T16:34:51.341Z,12.50
2022-12-23T16:37:18.357Z,12.50
2022-12-23T16:39:45.250Z,12.50
2022-12-23T16:42:12.190Z,12.50
2022-12-23T16:44:39.234Z,12.50
2022-12-23T16:47:13.170Z,12.50
2022-12-23T16:49:40.169Z,12.50
2022-12-23T16:52:09.278Z,12.60
2022-12-23T16:54:36.277Z,12.60
2022-12-23T16:57:03.277Z,12.60
2022-12-23T16:59:30.196Z,12.60
2022-12-23T17:02:03.157Z,12.50
2022-12-23T17:04:30.898Z,12.50
2022-12-23T17:06:58.073Z,12.60
2022-12-23T17:09:25.059Z,12.60
2022-12-23T17:11:53.719Z,12.60
2022-12-23T17:14:22.977Z,12.50
2022-12-23T17:16:50.975Z,12.50
2022-12-23T17:19:27.147Z,12.50
2022-12-23T17:22:02.636Z,12.50
2022-12-23T17:24:30.116Z,12.60
2022-12-23T17:26:57.317Z,12.50
2022-12-23T17:29:24.646Z,12.60
2022-12-23T17:31:52.182Z,12.50
2022-12-23T17:34:24.152Z,12.50
2022-12-23T17:36:51.625Z,12.60
2022-12-23T17:39:20.472Z,12.50
2022-12-23T17:41:48.048Z,12.50
2022-12-23T17:44:17.405Z,12.50
2022-12-23T17:46:45.814Z,12.50
2022-12-23T17:49:13.058Z,12.50
2022-12-23T17:51:41.343Z,12.50
2022-12-23T17:54:24.151Z,12.50
2022-12-23T17:56:51.445Z,12.60
2022-12-23T17:59:18.510Z,12.60
2022-12-23T18:01:45.631Z,12.60
2022-12-23T18:04:12.695Z,12.60
2022-12-23T18:06:39.883Z,12.50
2022-12-23T18:09:06.858Z,12.50
2022-12-23T18:11:34.786Z,12.50
2022-12-23T18:14:03.739Z,12.50
2022-12-23T18:16:30.786Z,12.40
2022-12-23T18:18:57.688Z,12.40
2022-12-23T18:21:25.598Z,12.40
2022-12-23T18:23:53.723Z,12.40
2022-12-23T18:26:20.624Z,12.50
2022-12-23T18:28:47.507Z,12.60
2022-12-23T18:31:18.780Z,12.50
2022-12-23T18:33:46.088Z,12.50
2022-12-23T18:36:20.542Z,12.50
2022-12-23T18:38:47.575Z,12.50
2022-12-23T18:41:14.581Z,12.50
2022-12-23T18:43:41.460Z,12.50
2022-12-23T18:46:08.503Z,12.40
2022-12-23T18:48:35.496Z,12.40
2022-12-23T18:51:02.750Z,12.50
2022-12-23T18:53:29.730Z,12.50
2022-12-23T18:55:56.669Z,12.60
2022-12-23T18:58:24.541Z,12.50
2022-12-23T19:00:52.915Z,12.60
2022-12-23T19:03:22.935Z,12.60
2022-12-23T19:05:50.306Z,12.60
2022-12-23T19:08:23.577Z,12.70
2022-12-23T19:10:53.035Z,12.70
2022-12-23T19:13:20.045Z,12.80
2022-12-23T19:15:46.965Z,12.80
2022-12-23T19:18:17.291Z,12.80
2022-12-23T19:20:45.096Z,12.80
2022-12-23T19:23:12.649Z,12.80
2022-12-23T19:25:50.779Z,12.80
2022-12-23T19:28:22.088Z,12.70
2022-12-23T19:30:49.346Z,12.70
2022-12-23T19:33:16.403Z,12.60
2022-12-23T19:35:43.709Z,12.50
2022-12-23T19:38:10.608Z,12.50
2022-12-23T19:40:37.511Z,12.60
2022-12-23T19:43:04.450Z,12.60
2022-12-23T19:45:31.345Z,12.60
2022-12-23T19:47:58.207Z,12.60
2022-12-23T19:50:26.579Z,12.60
2022-12-23T19:52:54.785Z,12.70
2022-12-23T19:55:21.728Z,12.50
2022-12-23T19:57:48.629Z,12.40
2022-12-23T20:00:16.083Z,12.50
2022-12-23T20:02:43.063Z,12.60
2022-12-23T20:05:10.263Z,12.60
2022-12-23T20:07:37.181Z,12.60
2022-12-23T20:10:05.032Z,12.60
2022-12-23T20:12:32.145Z,12.50
2022-12-23T20:14:58.990Z,12.50
2022-12-23T20:17:25.922Z,12.30
2022-12-23T20:19:52.866Z,12.20
2022-12-23T20:22:19.777Z,12.10
2022-12-23T20:24:46.603Z,12.10
2022-12-23T20:27:15.973Z,11.90
2022-12-23T20:29:43.239Z,11.90
2022-12-23T20:32:10.287Z,11.90
2022-12-23T20:34:40.006Z,12.00
2022-12-23T20:37:07.861Z,11.90
2022-12-23T20:39:35.324Z,12.10
2022-12-23T20:42:02.185Z,12.10
2022-12-23T20:44:37.276Z,12.20
2022-12-23T20:47:07.549Z,12.20
2022-12-23T20:49:34.460Z,12.30
2022-12-23T20:52:01.471Z,12.30
2022-12-23T20:54:33.300Z,12.30
2022-12-23T20:57:01.556Z,12.30
2022-12-23T20:59:28.495Z,12.40
2022-12-23T21:01:55.480Z,12.20
2022-12-23T21:04:22.803Z,12.00
2022-12-23T21:06:49.832Z,11.90
2022-12-23T21:09:17.339Z,11.80
2022-12-23T21:11:45.542Z,11.70
2022-12-23T21:14:12.707Z,11.60
2022-12-23T21:16:40.052Z,11.60
2022-12-23T21:19:08.337Z,11.60
2022-12-23T21:21:35.408Z,11.70
2022-12-23T21:24:04.266Z,11.60
2022-12-23T21:26:33.121Z,11.60
2022-12-23T21:29:01.059Z,11.60
2022-12-23T21:31:29.142Z,11.60
2022-12-23T21:33:56.509Z,11.70
2022-12-23T21:36:25.094Z,11.70
2022-12-23T21:38:52.097Z,11.70
2022-12-23T21:41:20.804Z,11.70
2022-12-23T21:43:48.122Z,11.60
2022-12-23T21:46:16.337Z,11.60
2022-12-23T21:48:44.322Z,11.60
2022-12-23T21:51:11.169Z,11.60
2022-12-23T21:53:38.191Z,11.50
2022-12-23T21:56:06.421Z,11.50
2022-12-23T21:58:33.332Z,11.50
2022-12-23T22:01:00.700Z,11.40
2022-12-23T22:03:27.836Z,11.30
2022-12-23T22:05:54.767Z,11.20
2022-12-23T22:08:21.701Z,11.10
2022-12-23T22:10:48.627Z,11.00
2022-12-23T22:13:15.708Z,10.90
2022-12-23T22:15:42.850Z,10.70
2022-12-23T22:18:09.678Z,10.60
2022-12-23T22:20:42.591Z,10.50
2022-12-23T22:23:12.721Z,10.60
2022-12-23T22:25:39.665Z,10.40
2022-12-23T22:28:06.526Z,10.30
2022-12-23T22:30:33.344Z,10.30
2022-12-23T22:33:00.228Z,10.30
2022-12-23T22:35:28.079Z,10.40
2022-12-23T22:37:55.069Z,10.30
2022-12-23T22:40:21.982Z,10.30
2022-12-23T22:42:48.896Z,10.40
2022-12-23T22:45:15.928Z,10.30
2022-12-23T22:47:42.996Z,10.30
2022-12-23T22:50:10.124Z,10.30
2022-12-23T22:52:37.203Z,10.30
2022-12-23T22:55:04.427Z,10.30
2022-12-23T22:57:31.368Z,10.30
2022-12-23T22:59:58.282Z,10.30
2022-12-23T23:02:25.599Z,10.20
2022-12-23T23:04:52.790Z,10.30
2022-12-23T23:07:19.741Z,10.30
2022-12-23T23:09:46.592Z,10.20
2022-12-23T23:12:13.492Z,10.20
2022-12-23T23:14:52.726Z,10.30
2022-12-23T23:17:21.225Z,10.30
2022-12-23T23:19:48.622Z,10.40
2022-12-23T23:22:16.370Z,10.60
2022-12-23T23:24:43.238Z,10.60
2022-12-23T23:27:10.361Z,10.50
2022-12-23T23:29:37.251Z,10.60
2022-12-23T23:32:04.466Z,10.60
2022-12-23T23:34:31.599Z,10.60
2022-12-23T23:36:58.724Z,10.70
2022-12-23T23:39:25.520Z,10.70
2022-12-23T23:41:52.673Z,10.70
2022-12-23T23:44:20.099Z,10.80
2022-12-23T23:46:47.105Z,10.70
2022-12-23T23:49:14.122Z,10.70
2022-12-23T23:51:41.823Z,10.80
2022-12-23T23:54:09.094Z,10.80
2022-12-23T23:56:39.074Z,10.60
2022-12-23T23:59:06.762Z,10.40
